Main page
Satellite images 15-day forecastsClimateMarine weather Cyclones Lightning AirportsFAQ Newsletter About
Weather : Europe Africa North America South America Asia Australia-Oceania Others
Languages Contact

Baia Mare, Romania

latitude: 47-40N, longitude: 023-35E, elevation: 218 m


METAR: LRBM 011000Z VRB02KT CAVOK 20/11 Q1025
TAF: LRBM 010800Z 0109/0118 VRB04KT CAVOK

Time: 13:10 (10:10 UTC)

Current weather observation

The report was made 10 minutes ago, at 10:00 UTC  
Wind 02 kt from variable directions
Temperature 20°C
Humidity 56%
Pressure 1025 hPa
Visibility 10 km or more
no clouds below 1500 m and no cumulonimbus

Change units

Forecast

The report was made 02 hours and 10 minutes ago, at 08:00 UTC  
Forecast valid from 01 at 09 UTC to 01 at 18 UTC
Wind 04 kt from variable directions
Visibility 10 km or more
no clouds below 1500 m and no cumulonimbus
The information on this site is subject to a disclaimer
Weather : Europe Africa North America South America Asia Australia-Oceania Others
Satellite images 15-day forecastsClimateMarine weather Cyclones Lightning AirportsFAQ Languages Contact Newsletter About